sensor_id;sensor_type;location;lat;lon;timestamp;P1;durP1;ratioP1;P2;durP2;ratioP2
59306;SDS011;47983;53.016;-2.260;2023-05-17T00:02:00;15.60;;;4.30;;
59306;SDS011;47983;53.016;-2.260;2023-05-17T00:04:28;13.18;;;4.15;;
59306;SDS011;47983;53.016;-2.260;2023-05-17T00:06:56;11.73;;;4.30;;
59306;SDS011;47983;53.016;-2.260;2023-05-17T00:09:24;9.98;;;3.90;;
59306;SDS011;47983;53.016;-2.260;2023-05-17T00:11:52;16.85;;;5.28;;
59306;SDS011;47983;53.016;-2.260;2023-05-17T00:14:20;15.32;;;3.80;;
59306;SDS011;47983;53.016;-2.260;2023-05-17T00:16:48;13.32;;;5.47;;
59306;SDS011;47983;53.016;-2.260;2023-05-17T00:19:16;15.70;;;4.82;;
59306;SDS011;47983;53.016;-2.260;2023-05-17T00:21:44;15.68;;;4.38;;
59306;SDS011;47983;53.016;-2.260;2023-05-17T00:24:12;20.88;;;4.75;;
59306;SDS011;47983;53.016;-2.260;2023-05-17T00:26:40;19.67;;;4.57;;
59306;SDS011;47983;53.016;-2.260;2023-05-17T00:29:08;18.20;;;4.53;;
59306;SDS011;47983;53.016;-2.260;2023-05-17T00:31:36;15.15;;;4.25;;
59306;SDS011;47983;53.016;-2.260;2023-05-17T00:34:04;11.82;;;4.47;;
59306;SDS011;47983;53.016;-2.260;2023-05-17T00:36:34;17.05;;;4.15;;
59306;SDS011;47983;53.016;-2.260;2023-05-17T00:39:02;12.60;;;3.97;;
59306;SDS011;47983;53.016;-2.260;2023-05-17T00:41:30;14.45;;;4.35;;
59306;SDS011;47983;53.016;-2.260;2023-05-17T00:43:58;13.07;;;4.25;;
59306;SDS011;47983;53.016;-2.260;2023-05-17T00:46:26;13.77;;;4.63;;
59306;SDS011;47983;53.016;-2.260;2023-05-17T00:48:55;19.77;;;3.88;;
59306;SDS011;47983;53.016;-2.260;2023-05-17T00:51:23;10.40;;;4.35;;
59306;SDS011;47983;53.016;-2.260;2023-05-17T00:53:50;11.82;;;3.85;;
59306;SDS011;47983;53.016;-2.260;2023-05-17T00:56:19;12.00;;;3.70;;
59306;SDS011;47983;53.016;-2.260;2023-05-17T00:58:50;11.18;;;4.20;;
59306;SDS011;47983;53.016;-2.260;2023-05-17T01:01:19;13.02;;;4.30;;
59306;SDS011;47983;53.016;-2.260;2023-05-17T01:03:49;10.60;;;4.53;;
59306;SDS011;47983;53.016;-2.260;2023-05-17T01:06:18;17.92;;;5.03;;
59306;SDS011;47983;53.016;-2.260;2023-05-17T01:08:46;16.77;;;5.38;;
59306;SDS011;47983;53.016;-2.260;2023-05-17T01:13:54;18.30;;;4.93;;
59306;SDS011;47983;53.016;-2.260;2023-05-17T01:16:38;14.67;;;4.17;;
59306;SDS011;47983;53.016;-2.260;2023-05-17T01:19:26;17.50;;;5.65;;
59306;SDS011;47983;53.016;-2.260;2023-05-17T01:22:24;13.68;;;4.95;;
59306;SDS011;47983;53.016;-2.260;2023-05-17T01:28:02;12.30;;;4.40;;
59306;SDS011;47983;53.016;-2.260;2023-05-17T01:30:32;14.13;;;4.07;;
59306;SDS011;47983;53.016;-2.260;2023-05-17T01:33:01;12.73;;;4.23;;
59306;SDS011;47983;53.016;-2.260;2023-05-17T01:35:30;12.43;;;4.60;;
59306;SDS011;47983;53.016;-2.260;2023-05-17T01:37:58;9.70;;;4.30;;
59306;SDS011;47983;53.016;-2.260;2023-05-17T01:40:26;10.27;;;3.78;;
59306;SDS011;47983;53.016;-2.260;2023-05-17T01:43:05;10.35;;;4.40;;
59306;SDS011;47983;53.016;-2.260;2023-05-17T01:45:55;11.38;;;4.18;;
59306;SDS011;47983;53.016;-2.260;2023-05-17T01:48:35;12.70;;;5.38;;
59306;SDS011;47983;53.016;-2.260;2023-05-17T01:51:08;11.95;;;4.07;;
59306;SDS011;47983;53.016;-2.260;2023-05-17T01:53:50;17.58;;;5.05;;
59306;SDS011;47983;53.016;-2.260;2023-05-17T01:56:26;20.65;;;3.97;;
59306;SDS011;47983;53.016;-2.260;2023-05-17T01:59:00;12.93;;;4.05;;
59306;SDS011;47983;53.016;-2.260;2023-05-17T02:01:31;18.83;;;4.68;;
59306;SDS011;47983;53.016;-2.260;2023-05-17T02:04:00;11.18;;;3.95;;
59306;SDS011;47983;53.016;-2.260;2023-05-17T02:06:31;14.77;;;5.47;;
59306;SDS011;47983;53.016;-2.260;2023-05-17T02:08:58;11.80;;;4.07;;
59306;SDS011;47983;53.016;-2.260;2023-05-17T02:11:29;12.85;;;4.30;;
59306;SDS011;47983;53.016;-2.260;2023-05-17T02:13:56;14.43;;;5.43;;
59306;SDS011;47983;53.016;-2.260;2023-05-17T02:16:25;15.25;;;4.03;;
59306;SDS011;47983;53.016;-2.260;2023-05-17T02:18:53;14.63;;;4.38;;
59306;SDS011;47983;53.016;-2.260;2023-05-17T02:21:21;16.60;;;4.60;;
59306;SDS011;47983;53.016;-2.260;2023-05-17T02:23:49;15.90;;;4.45;;
59306;SDS011;47983;53.016;-2.260;2023-05-17T02:26:18;9.88;;;4.35;;
59306;SDS011;47983;53.016;-2.260;2023-05-17T02:28:45;13.27;;;5.32;;
59306;SDS011;47983;53.016;-2.260;2023-05-17T02:31:14;10.98;;;5.18;;
59306;SDS011;47983;53.016;-2.260;2023-05-17T02:33:41;12.38;;;3.83;;
59306;SDS011;47983;53.016;-2.260;2023-05-17T02:36:09;16.08;;;4.22;;
59306;SDS011;47983;53.016;-2.260;2023-05-17T02:38:37;16.73;;;4.78;;
59306;SDS011;47983;53.016;-2.260;2023-05-17T02:41:05;11.27;;;4.03;;
59306;SDS011;47983;53.016;-2.260;2023-05-17T02:43:33;11.77;;;4.50;;
59306;SDS011;47983;53.016;-2.260;2023-05-17T02:46:03;14.68;;;5.55;;
59306;SDS011;47983;53.016;-2.260;2023-05-17T02:48:34;12.70;;;4.18;;
59306;SDS011;47983;53.016;-2.260;2023-05-17T02:51:03;13.80;;;3.95;;
59306;SDS011;47983;53.016;-2.260;2023-05-17T02:53:31;14.90;;;3.97;;
59306;SDS011;47983;53.016;-2.260;2023-05-17T02:55:59;14.75;;;4.35;;
59306;SDS011;47983;53.016;-2.260;2023-05-17T02:58:26;14.32;;;4.72;;
59306;SDS011;47983;53.016;-2.260;2023-05-17T03:00:54;25.75;;;4.95;;
59306;SDS011;47983;53.016;-2.260;2023-05-17T03:03:23;12.57;;;4.15;;
59306;SDS011;47983;53.016;-2.260;2023-05-17T03:05:51;13.05;;;4.65;;
59306;SDS011;47983;53.016;-2.260;2023-05-17T03:08:21;10.30;;;3.67;;
59306;SDS011;47983;53.016;-2.260;2023-05-17T03:10:49;14.40;;;5.88;;
59306;SDS011;47983;53.016;-2.260;2023-05-17T03:13:17;14.02;;;4.25;;
59306;SDS011;47983;53.016;-2.260;2023-05-17T03:15:45;15.02;;;4.20;;
59306;SDS011;47983;53.016;-2.260;2023-05-17T03:18:13;7.78;;;3.67;;
59306;SDS011;47983;53.016;-2.260;2023-05-17T03:20:42;10.20;;;3.72;;
59306;SDS011;47983;53.016;-2.260;2023-05-17T03:23:10;17.25;;;4.88;;
59306;SDS011;47983;53.016;-2.260;2023-05-17T03:25:48;13.70;;;4.72;;
59306;SDS011;47983;53.016;-2.260;2023-05-17T03:28:17;11.45;;;4.32;;
59306;SDS011;47983;53.016;-2.260;2023-05-17T03:30:45;12.65;;;4.78;;
59306;SDS011;47983;53.016;-2.260;2023-05-17T03:33:14;12.70;;;4.72;;
59306;SDS011;47983;53.016;-2.260;2023-05-17T03:35:42;14.75;;;4.40;;
59306;SDS011;47983;53.016;-2.260;2023-05-17T03:38:13;8.93;;;4.65;;
59306;SDS011;47983;53.016;-2.260;2023-05-17T03:40:41;20.75;;;5.88;;
59306;SDS011;47983;53.016;-2.260;2023-05-17T03:43:10;15.73;;;5.10;;
59306;SDS011;47983;53.016;-2.260;2023-05-17T03:45:38;14.52;;;5.05;;
59306;SDS011;47983;53.016;-2.260;2023-05-17T03:48:06;17.70;;;4.40;;
59306;SDS011;47983;53.016;-2.260;2023-05-17T03:50:34;14.35;;;4.30;;
59306;SDS011;47983;53.016;-2.260;2023-05-17T03:53:02;13.07;;;4.70;;
59306;SDS011;47983;53.016;-2.260;2023-05-17T03:55:30;13.50;;;3.97;;
59306;SDS011;47983;53.016;-2.260;2023-05-17T03:57:59;13.55;;;5.13;;
59306;SDS011;47983;53.016;-2.260;2023-05-17T04:00:27;12.93;;;4.50;;
59306;SDS011;47983;53.016;-2.260;2023-05-17T04:03:00;14.50;;;4.38;;
59306;SDS011;47983;53.016;-2.260;2023-05-17T04:05:28;12.15;;;4.85;;
59306;SDS011;47983;53.016;-2.260;2023-05-17T04:07:57;12.18;;;5.32;;
59306;SDS011;47983;53.016;-2.260;2023-05-17T04:10:24;15.40;;;4.72;;
59306;SDS011;47983;53.016;-2.260;2023-05-17T04:12:52;13.45;;;4.28;;
59306;SDS011;47983;53.016;-2.260;2023-05-17T04:15:20;15.50;;;4.38;;
59306;SDS011;47983;53.016;-2.260;2023-05-17T04:17:49;15.63;;;5.35;;
59306;SDS011;47983;53.016;-2.260;2023-05-17T04:20:17;10.85;;;4.60;;
59306;SDS011;47983;53.016;-2.260;2023-05-17T04:22:45;12.75;;;4.50;;
59306;SDS011;47983;53.016;-2.260;2023-05-17T04:25:14;15.25;;;5.30;;
59306;SDS011;47983;53.016;-2.260;2023-05-17T04:27:42;16.33;;;5.50;;
59306;SDS011;47983;53.016;-2.260;2023-05-17T04:30:10;9.15;;;4.05;;
59306;SDS011;47983;53.016;-2.260;2023-05-17T04:32:39;17.13;;;5.30;;
59306;SDS011;47983;53.016;-2.260;2023-05-17T04:35:07;14.30;;;5.13;;
59306;SDS011;47983;53.016;-2.260;2023-05-17T04:37:35;14.20;;;4.97;;
59306;SDS011;47983;53.016;-2.260;2023-05-17T04:40:15;20.15;;;4.97;;
59306;SDS011;47983;53.016;-2.260;2023-05-17T04:42:45;14.90;;;4.75;;
59306;SDS011;47983;53.016;-2.260;2023-05-17T04:45:13;15.15;;;4.57;;
59306;SDS011;47983;53.016;-2.260;2023-05-17T04:47:42;12.60;;;4.93;;
59306;SDS011;47983;53.016;-2.260;2023-05-17T04:50:10;16.42;;;5.35;;
59306;SDS011;47983;53.016;-2.260;2023-05-17T04:52:39;12.68;;;5.20;;
59306;SDS011;47983;53.016;-2.260;2023-05-17T04:55:08;16.63;;;5.93;;
59306;SDS011;47983;53.016;-2.260;2023-05-17T04:57:39;16.25;;;6.22;;
59306;SDS011;47983;53.016;-2.260;2023-05-17T05:00:09;11.95;;;5.32;;
59306;SDS011;47983;53.016;-2.260;2023-05-17T05:02:41;16.42;;;5.90;;
59306;SDS011;47983;53.016;-2.260;2023-05-17T05:05:10;12.05;;;5.40;;
59306;SDS011;47983;53.016;-2.260;2023-05-17T05:07:41;14.30;;;4.93;;
59306;SDS011;47983;53.016;-2.260;2023-05-17T05:10:09;10.75;;;4.85;;
59306;SDS011;47983;53.016;-2.260;2023-05-17T05:12:38;13.75;;;5.40;;
59306;SDS011;47983;53.016;-2.260;2023-05-17T05:15:06;19.00;;;5.40;;
59306;SDS011;47983;53.016;-2.260;2023-05-17T05:17:37;17.67;;;6.10;;
59306;SDS011;47983;53.016;-2.260;2023-05-17T05:20:06;19.38;;;5.63;;
59306;SDS011;47983;53.016;-2.260;2023-05-17T05:22:35;14.73;;;6.15;;
59306;SDS011;47983;53.016;-2.260;2023-05-17T05:25:03;16.70;;;5.88;;
59306;SDS011;47983;53.016;-2.260;2023-05-17T05:27:31;15.63;;;5.68;;
59306;SDS011;47983;53.016;-2.260;2023-05-17T05:32:30;14.45;;;5.70;;
59306;SDS011;47983;53.016;-2.260;2023-05-17T05:34:58;22.85;;;6.45;;
59306;SDS011;47983;53.016;-2.260;2023-05-17T05:37:27;21.98;;;6.53;;
59306;SDS011;47983;53.016;-2.260;2023-05-17T05:39:58;20.80;;;5.82;;
59306;SDS011;47983;53.016;-2.260;2023-05-17T05:42:26;16.23;;;5.93;;
59306;SDS011;47983;53.016;-2.260;2023-05-17T05:44:55;14.13;;;6.30;;
59306;SDS011;47983;53.016;-2.260;2023-05-17T05:47:24;11.77;;;6.13;;
59306;SDS011;47983;53.016;-2.260;2023-05-17T05:49:54;23.30;;;6.57;;
59306;SDS011;47983;53.016;-2.260;2023-05-17T05:52:22;12.32;;;5.65;;
59306;SDS011;47983;53.016;-2.260;2023-05-17T05:54:50;18.42;;;6.10;;
59306;SDS011;47983;53.016;-2.260;2023-05-17T05:57:18;22.48;;;6.35;;
59306;SDS011;47983;53.016;-2.260;2023-05-17T05:59:47;15.13;;;5.72;;
59306;SDS011;47983;53.016;-2.260;2023-05-17T06:02:15;21.58;;;6.00;;
59306;SDS011;47983;53.016;-2.260;2023-05-17T06:04:43;13.43;;;5.85;;
59306;SDS011;47983;53.016;-2.260;2023-05-17T06:07:13;19.13;;;6.25;;
59306;SDS011;47983;53.016;-2.260;2023-05-17T06:09:41;15.93;;;5.65;;
59306;SDS011;47983;53.016;-2.260;2023-05-17T06:12:09;18.05;;;7.43;;
59306;SDS011;47983;53.016;-2.260;2023-05-17T06:14:37;16.90;;;5.57;;
59306;SDS011;47983;53.016;-2.260;2023-05-17T06:17:05;15.38;;;5.25;;
59306;SDS011;47983;53.016;-2.260;2023-05-17T06:19:34;21.33;;;6.05;;
59306;SDS011;47983;53.016;-2.260;2023-05-17T06:22:02;21.55;;;5.65;;
59306;SDS011;47983;53.016;-2.260;2023-05-17T06:24:30;21.73;;;6.10;;
59306;SDS011;47983;53.016;-2.260;2023-05-17T06:26:59;21.75;;;5.90;;
59306;SDS011;47983;53.016;-2.260;2023-05-17T06:29:27;15.20;;;6.00;;
59306;SDS011;47983;53.016;-2.260;2023-05-17T06:31:56;17.85;;;5.60;;
59306;SDS011;47983;53.016;-2.260;2023-05-17T06:36:53;19.20;;;5.38;;
59306;SDS011;47983;53.016;-2.260;2023-05-17T06:39:24;15.88;;;6.03;;
59306;SDS011;47983;53.016;-2.260;2023-05-17T06:41:52;18.50;;;6.22;;
59306;SDS011;47983;53.016;-2.260;2023-05-17T06:44:19;19.88;;;7.15;;
59306;SDS011;47983;53.016;-2.260;2023-05-17T06:46:47;18.15;;;5.78;;
59306;SDS011;47983;53.016;-2.260;2023-05-17T06:49:16;12.30;;;5.70;;
59306;SDS011;47983;53.016;-2.260;2023-05-17T06:51:44;14.52;;;5.78;;
59306;SDS011;47983;53.016;-2.260;2023-05-17T06:54:14;20.23;;;6.07;;
59306;SDS011;47983;53.016;-2.260;2023-05-17T06:56:42;14.43;;;6.40;;
59306;SDS011;47983;53.016;-2.260;2023-05-17T06:59:10;18.48;;;5.65;;
59306;SDS011;47983;53.016;-2.260;2023-05-17T07:01:39;12.23;;;4.97;;
59306;SDS011;47983;53.016;-2.260;2023-05-17T07:04:07;13.20;;;5.55;;
59306;SDS011;47983;53.016;-2.260;2023-05-17T07:06:35;14.85;;;4.88;;
59306;SDS011;47983;53.016;-2.260;2023-05-17T07:09:02;12.68;;;5.38;;
59306;SDS011;47983;53.016;-2.260;2023-05-17T07:11:30;11.75;;;4.65;;
59306;SDS011;47983;53.016;-2.260;2023-05-17T07:13:58;10.80;;;4.05;;
59306;SDS011;47983;53.016;-2.260;2023-05-17T07:16:26;17.75;;;5.13;;
59306;SDS011;47983;53.016;-2.260;2023-05-17T07:18:55;12.05;;;3.90;;
59306;SDS011;47983;53.016;-2.260;2023-05-17T07:21:25;9.05;;;3.92;;
59306;SDS011;47983;53.016;-2.260;2023-05-17T07:23:53;15.73;;;4.53;;
59306;SDS011;47983;53.016;-2.260;2023-05-17T07:26:22;11.05;;;4.35;;
59306;SDS011;47983;53.016;-2.260;2023-05-17T07:28:50;18.42;;;4.32;;
59306;SDS011;47983;53.016;-2.260;2023-05-17T07:31:18;16.15;;;4.43;;
59306;SDS011;47983;53.016;-2.260;2023-05-17T07:33:46;12.23;;;4.13;;
59306;SDS011;47983;53.016;-2.260;2023-05-17T07:36:13;11.75;;;3.83;;
59306;SDS011;47983;53.016;-2.260;2023-05-17T07:38:42;10.43;;;3.28;;
59306;SDS011;47983;53.016;-2.260;2023-05-17T07:41:09;7.72;;;2.90;;
59306;SDS011;47983;53.016;-2.260;2023-05-17T07:46:07;17.92;;;3.30;;
59306;SDS011;47983;53.016;-2.260;2023-05-17T07:48:35;10.63;;;3.10;;
59306;SDS011;47983;53.016;-2.260;2023-05-17T07:51:04;7.68;;;2.72;;
59306;SDS011;47983;53.016;-2.260;2023-05-17T07:53:32;14.02;;;2.97;;
59306;SDS011;47983;53.016;-2.260;2023-05-17T07:55:59;11.82;;;3.08;;
59306;SDS011;47983;53.016;-2.260;2023-05-17T07:58:30;14.80;;;3.17;;
59306;SDS011;47983;53.016;-2.260;2023-05-17T08:00:58;7.70;;;2.88;;
59306;SDS011;47983;53.016;-2.260;2023-05-17T08:03:27;13.25;;;2.75;;
59306;SDS011;47983;53.016;-2.260;2023-05-17T08:05:55;11.13;;;2.47;;
59306;SDS011;47983;53.016;-2.260;2023-05-17T08:08:23;7.40;;;2.75;;
59306;SDS011;47983;53.016;-2.260;2023-05-17T08:10:51;10.23;;;2.67;;
59306;SDS011;47983;53.016;-2.260;2023-05-17T08:13:21;13.85;;;2.60;;
59306;SDS011;47983;53.016;-2.260;2023-05-17T08:15:49;13.73;;;2.67;;
59306;SDS011;47983;53.016;-2.260;2023-05-17T08:18:28;7.03;;;2.78;;
59306;SDS011;47983;53.016;-2.260;2023-05-17T08:20:57;7.55;;;2.25;;
59306;SDS011;47983;53.016;-2.260;2023-05-17T08:23:24;10.10;;;2.85;;
59306;SDS011;47983;53.016;-2.260;2023-05-17T08:25:53;12.68;;;2.67;;
59306;SDS011;47983;53.016;-2.260;2023-05-17T08:28:21;10.57;;;2.40;;
59306;SDS011;47983;53.016;-2.260;2023-05-17T08:30:49;8.80;;;3.08;;
59306;SDS011;47983;53.016;-2.260;2023-05-17T08:33:17;13.55;;;2.47;;
59306;SDS011;47983;53.016;-2.260;2023-05-17T08:35:48;7.32;;;2.78;;
59306;SDS011;47983;53.016;-2.260;2023-05-17T08:38:22;7.18;;;2.33;;
59306;SDS011;47983;53.016;-2.260;2023-05-17T08:40:53;13.63;;;2.63;;
59306;SDS011;47983;53.016;-2.260;2023-05-17T08:43:26;9.27;;;2.58;;
59306;SDS011;47983;53.016;-2.260;2023-05-17T08:45:55;7.75;;;2.85;;
59306;SDS011;47983;53.016;-2.260;2023-05-17T08:48:27;8.73;;;2.70;;
59306;SDS011;47983;53.016;-2.260;2023-05-17T08:50:58;12.05;;;2.80;;
59306;SDS011;47983;53.016;-2.260;2023-05-17T08:53:27;12.00;;;3.35;;
59306;SDS011;47983;53.016;-2.260;2023-05-17T08:55:58;8.35;;;2.38;;
59306;SDS011;47983;53.016;-2.260;2023-05-17T08:58:30;8.85;;;3.03;;
59306;SDS011;47983;53.016;-2.260;2023-05-17T09:01:22;14.40;;;2.53;;
59306;SDS011;47983;53.016;-2.260;2023-05-17T09:03:53;8.65;;;2.80;;
59306;SDS011;47983;53.016;-2.260;2023-05-17T09:06:23;7.28;;;2.30;;
59306;SDS011;47983;53.016;-2.260;2023-05-17T09:08:52;6.68;;;2.33;;
59306;SDS011;47983;53.016;-2.260;2023-05-17T09:11:28;9.85;;;2.45;;
59306;SDS011;47983;53.016;-2.260;2023-05-17T09:14:02;6.93;;;2.45;;
59306;SDS011;47983;53.016;-2.260;2023-05-17T09:16:33;7.53;;;3.03;;
59306;SDS011;47983;53.016;-2.260;2023-05-17T09:19:03;9.20;;;2.67;;
59306;SDS011;47983;53.016;-2.260;2023-05-17T09:21:32;12.82;;;2.95;;
59306;SDS011;47983;53.016;-2.260;2023-05-17T09:24:00;5.50;;;3.17;;
59306;SDS011;47983;53.016;-2.260;2023-05-17T09:26:38;7.80;;;3.08;;
59306;SDS011;47983;53.016;-2.260;2023-05-17T09:29:11;10.90;;;2.80;;
59306;SDS011;47983;53.016;-2.260;2023-05-17T09:31:41;11.45;;;3.35;;
59306;SDS011;47983;53.016;-2.260;2023-05-17T09:34:11;8.38;;;2.65;;
59306;SDS011;47983;53.016;-2.260;2023-05-17T09:36:42;7.97;;;2.50;;
59306;SDS011;47983;53.016;-2.260;2023-05-17T09:39:11;7.60;;;2.70;;
59306;SDS011;47983;53.016;-2.260;2023-05-17T09:41:41;10.93;;;2.65;;
59306;SDS011;47983;53.016;-2.260;2023-05-17T09:44:19;9.27;;;3.05;;
59306;SDS011;47983;53.016;-2.260;2023-05-17T09:46:48;4.00;;;2.17;;
59306;SDS011;47983;53.016;-2.260;2023-05-17T09:49:16;9.25;;;2.38;;
59306;SDS011;47983;53.016;-2.260;2023-05-17T09:51:48;6.72;;;2.22;;
59306;SDS011;47983;53.016;-2.260;2023-05-17T09:54:16;18.83;;;2.70;;
59306;SDS011;47983;53.016;-2.260;2023-05-17T09:56:51;13.18;;;2.42;;
59306;SDS011;47983;53.016;-2.260;2023-05-17T09:59:20;11.05;;;2.38;;
59306;SDS011;47983;53.016;-2.260;2023-05-17T10:01:51;5.50;;;2.70;;
59306;SDS011;47983;53.016;-2.260;2023-05-17T10:04:20;17.33;;;4.13;;
59306;SDS011;47983;53.016;-2.260;2023-05-17T10:06:51;8.20;;;3.30;;
59306;SDS011;47983;53.016;-2.260;2023-05-17T10:09:21;14.63;;;3.22;;
59306;SDS011;47983;53.016;-2.260;2023-05-17T10:11:49;10.05;;;2.63;;
59306;SDS011;47983;53.016;-2.260;2023-05-17T10:14:23;10.15;;;2.47;;
59306;SDS011;47983;53.016;-2.260;2023-05-17T10:16:55;14.68;;;3.53;;
59306;SDS011;47983;53.016;-2.260;2023-05-17T10:19:24;9.40;;;2.10;;
59306;SDS011;47983;53.016;-2.260;2023-05-17T10:21:53;7.25;;;2.38;;
59306;SDS011;47983;53.016;-2.260;2023-05-17T10:24:34;7.57;;;2.20;;
59306;SDS011;47983;53.016;-2.260;2023-05-17T10:27:06;15.27;;;3.20;;
59306;SDS011;47983;53.016;-2.260;2023-05-17T10:29:35;8.52;;;2.75;;
59306;SDS011;47983;53.016;-2.260;2023-05-17T10:32:05;9.07;;;2.20;;
59306;SDS011;47983;53.016;-2.260;2023-05-17T10:34:34;13.55;;;3.15;;
59306;SDS011;47983;53.016;-2.260;2023-05-17T10:37:04;10.88;;;2.28;;
59306;SDS011;47983;53.016;-2.260;2023-05-17T10:39:33;10.90;;;2.67;;
59306;SDS011;47983;53.016;-2.260;2023-05-17T10:42:08;7.82;;;2.15;;
59306;SDS011;47983;53.016;-2.260;2023-05-17T10:44:41;6.65;;;2.45;;
59306;SDS011;47983;53.016;-2.260;2023-05-17T10:47:09;5.68;;;2.05;;
59306;SDS011;47983;53.016;-2.260;2023-05-17T10:49:38;9.85;;;2.75;;
59306;SDS011;47983;53.016;-2.260;2023-05-17T10:52:11;13.35;;;3.22;;
59306;SDS011;47983;53.016;-2.260;2023-05-17T10:54:42;5.82;;;2.20;;
59306;SDS011;47983;53.016;-2.260;2023-05-17T10:57:18;9.90;;;2.78;;
59306;SDS011;47983;53.016;-2.260;2023-05-17T11:00:09;8.18;;;2.47;;
59306;SDS011;47983;53.016;-2.260;2023-05-17T11:02:46;5.85;;;2.50;;
59306;SDS011;47983;53.016;-2.260;2023-05-17T11:05:24;9.55;;;2.50;;
59306;SDS011;47983;53.016;-2.260;2023-05-17T11:08:15;7.35;;;3.08;;
59306;SDS011;47983;53.016;-2.260;2023-05-17T11:14:05;4.40;;;1.60;;
59306;SDS011;47983;53.016;-2.260;2023-05-17T11:16:37;6.00;;;1.60;;
59306;SDS011;47983;53.016;-2.260;2023-05-17T11:19:07;6.53;;;2.05;;
59306;SDS011;47983;53.016;-2.260;2023-05-17T11:21:47;5.72;;;2.15;;
59306;SDS011;47983;53.016;-2.260;2023-05-17T11:24:15;6.63;;;2.40;;
59306;SDS011;47983;53.016;-2.260;2023-05-17T11:29:27;7.35;;;1.85;;
59306;SDS011;47983;53.016;-2.260;2023-05-17T11:31:57;5.47;;;2.05;;
59306;SDS011;47983;53.016;-2.260;2023-05-17T11:34:25;5.82;;;2.08;;
59306;SDS011;47983;53.016;-2.260;2023-05-17T11:36:54;7.22;;;1.80;;
59306;SDS011;47983;53.016;-2.260;2023-05-17T11:39:23;7.25;;;2.28;;
59306;SDS011;47983;53.016;-2.260;2023-05-17T11:41:53;11.27;;;3.13;;
59306;SDS011;47983;53.016;-2.260;2023-05-17T11:44:24;5.55;;;2.00;;
59306;SDS011;47983;53.016;-2.260;2023-05-17T11:47:05;6.80;;;1.83;;
59306;SDS011;47983;53.016;-2.260;2023-05-17T11:49:36;9.10;;;3.05;;
59306;SDS011;47983;53.016;-2.260;2023-05-17T11:52:05;4.63;;;1.98;;
59306;SDS011;47983;53.016;-2.260;2023-05-17T11:54:34;4.78;;;2.53;;
59306;SDS011;47983;53.016;-2.260;2023-05-17T11:57:04;8.23;;;2.47;;
59306;SDS011;47983;53.016;-2.260;2023-05-17T11:59:36;5.82;;;2.30;;
59306;SDS011;47983;53.016;-2.260;2023-05-17T12:02:09;6.68;;;2.15;;
59306;SDS011;47983;53.016;-2.260;2023-05-17T12:04:51;9.15;;;2.90;;
59306;SDS011;47983;53.016;-2.260;2023-05-17T12:07:19;8.15;;;2.30;;
59306;SDS011;47983;53.016;-2.260;2023-05-17T12:09:47;4.35;;;2.28;;
59306;SDS011;47983;53.016;-2.260;2023-05-17T12:12:16;4.63;;;1.80;;
59306;SDS011;47983;53.016;-2.260;2023-05-17T12:14:47;5.50;;;2.08;;
59306;SDS011;47983;53.016;-2.260;2023-05-17T12:19:51;8.10;;;2.45;;
59306;SDS011;47983;53.016;-2.260;2023-05-17T12:22:20;9.73;;;2.10;;
59306;SDS011;47983;53.016;-2.260;2023-05-17T12:24:48;7.05;;;2.13;;
59306;SDS011;47983;53.016;-2.260;2023-05-17T12:27:23;5.60;;;2.25;;
59306;SDS011;47983;53.016;-2.260;2023-05-17T12:29:52;3.28;;;1.83;;
59306;SDS011;47983;53.016;-2.260;2023-05-17T12:32:23;11.38;;;2.60;;
59306;SDS011;47983;53.016;-2.260;2023-05-17T12:34:54;11.90;;;2.92;;
59306;SDS011;47983;53.016;-2.260;2023-05-17T12:37:22;8.57;;;3.00;;
59306;SDS011;47983;53.016;-2.260;2023-05-17T12:39:52;10.32;;;2.78;;
59306;SDS011;47983;53.016;-2.260;2023-05-17T12:42:22;6.53;;;2.70;;
59306;SDS011;47983;53.016;-2.260;2023-05-17T12:44:50;10.18;;;3.03;;
59306;SDS011;47983;53.016;-2.260;2023-05-17T12:47:17;7.55;;;2.75;;
59306;SDS011;47983;53.016;-2.260;2023-05-17T12:49:54;7.55;;;2.60;;
59306;SDS011;47983;53.016;-2.260;2023-05-17T12:52:24;13.35;;;3.00;;
59306;SDS011;47983;53.016;-2.260;2023-05-17T12:54:52;14.80;;;3.25;;
59306;SDS011;47983;53.016;-2.260;2023-05-17T12:57:23;9.05;;;2.78;;
59306;SDS011;47983;53.016;-2.260;2023-05-17T12:59:51;8.45;;;3.17;;
59306;SDS011;47983;53.016;-2.260;2023-05-17T13:02:21;9.80;;;2.80;;
59306;SDS011;47983;53.016;-2.260;2023-05-17T13:04:50;11.40;;;3.85;;
59306;SDS011;47983;53.016;-2.260;2023-05-17T13:07:22;10.77;;;3.45;;
59306;SDS011;47983;53.016;-2.260;2023-05-17T13:09:53;7.50;;;3.15;;
59306;SDS011;47983;53.016;-2.260;2023-05-17T13:12:22;12.65;;;3.45;;
59306;SDS011;47983;53.016;-2.260;2023-05-17T13:14:51;10.85;;;2.88;;
59306;SDS011;47983;53.016;-2.260;2023-05-17T13:17:26;10.77;;;3.40;;
59306;SDS011;47983;53.016;-2.260;2023-05-17T13:20:06;7.05;;;2.58;;
59306;SDS011;47983;53.016;-2.260;2023-05-17T13:22:46;8.45;;;2.67;;
59306;SDS011;47983;53.016;-2.260;2023-05-17T13:25:15;8.15;;;3.03;;
59306;SDS011;47983;53.016;-2.260;2023-05-17T13:27:44;6.70;;;2.95;;
59306;SDS011;47983;53.016;-2.260;2023-05-17T13:30:15;6.72;;;2.83;;
59306;SDS011;47983;53.016;-2.260;2023-05-17T13:32:43;10.27;;;3.50;;
59306;SDS011;47983;53.016;-2.260;2023-05-17T13:37:42;5.93;;;2.35;;
59306;SDS011;47983;53.016;-2.260;2023-05-17T13:40:10;8.52;;;3.50;;
59306;SDS011;47983;53.016;-2.260;2023-05-17T13:42:38;15.73;;;3.17;;
59306;SDS011;47983;53.016;-2.260;2023-05-17T13:45:06;8.60;;;3.42;;
59306;SDS011;47983;53.016;-2.260;2023-05-17T13:47:35;6.32;;;2.80;;
59306;SDS011;47983;53.016;-2.260;2023-05-17T13:50:03;6.80;;;3.05;;
59306;SDS011;47983;53.016;-2.260;2023-05-17T13:52:32;6.38;;;2.63;;
59306;SDS011;47983;53.016;-2.260;2023-05-17T13:55:00;5.10;;;2.15;;
59306;SDS011;47983;53.016;-2.260;2023-05-17T13:57:28;9.90;;;2.38;;
59306;SDS011;47983;53.016;-2.260;2023-05-17T13:59:55;4.25;;;2.30;;
59306;SDS011;47983;53.016;-2.260;2023-05-17T14:02:23;9.43;;;2.30;;
59306;SDS011;47983;53.016;-2.260;2023-05-17T14:04:51;7.95;;;2.15;;
59306;SDS011;47983;53.016;-2.260;2023-05-17T14:07:20;6.85;;;2.70;;
59306;SDS011;47983;53.016;-2.260;2023-05-17T14:09:48;9.43;;;2.92;;
59306;SDS011;47983;53.016;-2.260;2023-05-17T14:12:19;7.88;;;2.53;;
59306;SDS011;47983;53.016;-2.260;2023-05-17T14:14:47;7.05;;;2.28;;
59306;SDS011;47983;53.016;-2.260;2023-05-17T14:17:15;10.30;;;2.72;;
59306;SDS011;47983;53.016;-2.260;2023-05-17T14:19:43;8.65;;;2.65;;
59306;SDS011;47983;53.016;-2.260;2023-05-17T14:22:11;9.27;;;2.40;;
59306;SDS011;47983;53.016;-2.260;2023-05-17T14:24:40;6.65;;;2.63;;
59306;SDS011;47983;53.016;-2.260;2023-05-17T14:27:08;10.43;;;2.70;;
59306;SDS011;47983;53.016;-2.260;2023-05-17T14:29:36;6.65;;;2.70;;
59306;SDS011;47983;53.016;-2.260;2023-05-17T14:32:05;9.48;;;2.85;;
59306;SDS011;47983;53.016;-2.260;2023-05-17T14:34:39;6.32;;;2.13;;
59306;SDS011;47983;53.016;-2.260;2023-05-17T14:37:07;4.25;;;2.10;;
59306;SDS011;47983;53.016;-2.260;2023-05-17T14:39:35;5.72;;;2.22;;
59306;SDS011;47983;53.016;-2.260;2023-05-17T14:42:06;6.93;;;2.10;;
59306;SDS011;47983;53.016;-2.260;2023-05-17T14:44:33;6.68;;;2.60;;
59306;SDS011;47983;53.016;-2.260;2023-05-17T14:47:07;10.65;;;2.58;;
59306;SDS011;47983;53.016;-2.260;2023-05-17T14:49:36;9.80;;;2.30;;
59306;SDS011;47983;53.016;-2.260;2023-05-17T14:52:04;5.30;;;2.55;;
59306;SDS011;47983;53.016;-2.260;2023-05-17T14:54:32;7.15;;;2.40;;
59306;SDS011;47983;53.016;-2.260;2023-05-17T14:57:01;5.43;;;2.33;;
59306;SDS011;47983;53.016;-2.260;2023-05-17T14:59:29;8.95;;;2.47;;
59306;SDS011;47983;53.016;-2.260;2023-05-17T15:02:00;6.68;;;2.53;;
59306;SDS011;47983;53.016;-2.260;2023-05-17T15:04:29;5.05;;;1.90;;
59306;SDS011;47983;53.016;-2.260;2023-05-17T15:06:57;7.75;;;2.72;;